createdAt,value
2022-09-21T00:01:36.619Z,8.90
2022-09-21T00:04:10.771Z,8.89
2022-09-21T00:06:43.943Z,8.87
2022-09-21T00:09:17.560Z,8.86
2022-09-21T00:11:53.281Z,8.84
2022-09-21T00:14:25.539Z,8.82
2022-09-21T00:16:58.722Z,8.81
2022-09-21T00:19:31.881Z,8.79
2022-09-21T00:22:05.045Z,8.75
2022-09-21T00:24:38.288Z,8.75
2022-09-21T00:27:11.378Z,8.73
2022-09-21T00:29:44.666Z,8.71
2022-09-21T00:32:17.743Z,8.68
2022-09-21T00:34:51.555Z,8.67
2022-09-21T00:37:25.201Z,8.63
2022-09-21T00:39:58.530Z,8.62
2022-09-21T00:42:34.879Z,8.59
2022-09-21T00:45:12.465Z,8.58
2022-09-21T00:47:47.319Z,8.59
2022-09-21T00:50:23.084Z,8.62
2022-09-21T00:52:59.472Z,8.64
2022-09-21T00:55:37.027Z,8.65
2022-09-21T00:58:12.794Z,8.66
2022-09-21T01:00:46.203Z,8.66
2022-09-21T01:03:19.480Z,8.65
2022-09-21T01:05:52.664Z,8.67
2022-09-21T01:08:27.505Z,8.65
2022-09-21T01:11:13.339Z,8.71
2022-09-21T01:13:51.280Z,8.73
2022-09-21T01:16:24.423Z,8.73
2022-09-21T01:19:01.295Z,8.80
2022-09-21T01:21:37.381Z,8.73
2022-09-21T01:24:21.635Z,8.74
2022-09-21T01:27:23.286Z,8.72
2022-09-21T01:30:00.019Z,8.70
2022-09-21T01:32:37.072Z,8.69
2022-09-21T01:35:14.206Z,8.69
2022-09-21T01:37:51.099Z,8.67
2022-09-21T01:40:26.654Z,8.66
2022-09-21T01:43:01.564Z,8.64
2022-09-21T01:45:36.914Z,8.62
2022-09-21T01:48:11.303Z,8.60
2022-09-21T01:50:47.207Z,8.59
2022-09-21T01:53:23.150Z,8.56
2022-09-21T01:55:59.130Z,8.56
2022-09-21T01:58:35.496Z,8.55
2022-09-21T02:01:11.229Z,8.54
2022-09-21T02:03:46.961Z,8.54
2022-09-21T02:06:21.228Z,8.51
2022-09-21T02:08:54.257Z,8.48
2022-09-21T02:11:27.187Z,8.46
2022-09-21T02:14:00.046Z,8.44
2022-09-21T02:16:40.754Z,8.42
2022-09-21T02:19:17.835Z,8.41
2022-09-21T02:21:59.808Z,8.41
2022-09-21T02:24:39.277Z,8.42
2022-09-21T02:27:17.081Z,8.40
2022-09-21T02:29:53.803Z,8.39
2022-09-21T02:32:32.566Z,8.40
2022-09-21T02:35:09.505Z,8.42
2022-09-21T02:37:46.155Z,8.43
2022-09-21T02:40:23.975Z,8.44
2022-09-21T02:42:59.925Z,8.42
2022-09-21T02:45:36.020Z,8.39
2022-09-21T02:48:12.414Z,8.36
2022-09-21T02:50:48.624Z,8.34
2022-09-21T02:53:24.624Z,8.31
2022-09-21T02:56:02.491Z,8.29
2022-09-21T02:58:35.455Z,8.26
2022-09-21T03:01:10.318Z,8.34
2022-09-21T03:03:43.948Z,8.26
2022-09-21T03:06:17.190Z,8.25
2022-09-21T03:08:50.207Z,8.25
2022-09-21T03:11:23.368Z,8.27
2022-09-21T03:13:56.315Z,8.30
2022-09-21T03:16:29.217Z,8.36
2022-09-21T03:19:02.050Z,8.40
2022-09-21T03:21:35.083Z,8.43
2022-09-21T03:24:08.312Z,8.46
2022-09-21T03:26:41.085Z,8.46
2022-09-21T03:29:15.046Z,8.48
2022-09-21T03:31:47.830Z,8.50
2022-09-21T03:34:20.843Z,8.49
2022-09-21T03:36:54.025Z,8.51
2022-09-21T03:39:26.822Z,8.52
2022-09-21T03:42:00.475Z,8.55
2022-09-21T03:44:33.400Z,8.58
2022-09-21T03:47:07.363Z,8.64
2022-09-21T03:49:40.215Z,8.68
2022-09-21T03:52:13.072Z,8.73
2022-09-21T03:54:45.936Z,8.74
2022-09-21T03:57:19.238Z,8.78
2022-09-21T03:59:52.338Z,8.83
2022-09-21T04:02:25.158Z,8.86
2022-09-21T04:04:58.160Z,8.91
2022-09-21T04:07:34.611Z,8.95
2022-09-21T04:10:10.737Z,9.00
2022-09-21T04:12:44.484Z,9.01
2022-09-21T04:15:19.929Z,9.07
2022-09-21T04:17:55.525Z,9.14
2022-09-21T04:20:28.703Z,9.19
2022-09-21T04:23:01.631Z,9.22
2022-09-21T04:25:34.649Z,9.26
2022-09-21T04:28:07.789Z,9.28
2022-09-21T04:30:41.853Z,9.33
2022-09-21T04:33:15.098Z,9.34
2022-09-21T04:36:11.722Z,9.37
2022-09-21T04:38:46.752Z,9.40
2022-09-21T04:41:20.160Z,9.41
2022-09-21T04:43:52.940Z,9.44
2022-09-21T04:46:25.853Z,9.40
2022-09-21T04:48:59.090Z,9.36
2022-09-21T04:51:32.376Z,9.38
2022-09-21T04:54:06.790Z,9.43
2022-09-21T04:56:39.780Z,9.50
2022-09-21T04:59:12.975Z,9.52
2022-09-21T05:01:46.086Z,9.56
2022-09-21T05:04:19.533Z,9.61
2022-09-21T05:06:52.635Z,9.58
2022-09-21T05:09:44.109Z,9.66
2022-09-21T05:12:17.142Z,9.71
2022-09-21T05:14:51.770Z,9.83
2022-09-21T05:17:25.461Z,9.94
2022-09-21T05:19:58.743Z,9.98
2022-09-21T05:22:32.073Z,10.05
2022-09-21T05:25:05.458Z,10.09
2022-09-21T05:27:38.538Z,10.14
2022-09-21T05:30:14.634Z,10.17
2022-09-21T05:32:51.872Z,10.27
2022-09-21T05:35:29.547Z,10.42
2022-09-21T05:38:07.436Z,10.68
2022-09-21T05:40:39.615Z,10.68
2022-09-21T05:43:13.525Z,10.97
2022-09-21T05:45:49.236Z,11.02
2022-09-21T05:48:27.688Z,11.17
2022-09-21T05:51:03.777Z,11.34
2022-09-21T05:53:50.507Z,11.43
2022-09-21T05:56:33.824Z,11.53
2022-09-21T05:59:12.701Z,11.75
2022-09-21T06:01:50.179Z,11.86
2022-09-21T06:04:24.453Z,11.96
2022-09-21T06:06:57.630Z,12.10
2022-09-21T06:09:30.761Z,12.27
2022-09-21T06:12:04.603Z,12.46
2022-09-21T06:14:37.708Z,12.43
2022-09-21T06:17:10.844Z,12.52
2022-09-21T06:19:44.034Z,12.82
2022-09-21T06:22:17.127Z,13.19
2022-09-21T06:24:50.272Z,13.69
2022-09-21T06:27:23.503Z,14.24
2022-09-21T06:29:56.572Z,14.77
2022-09-21T06:32:29.705Z,15.27
2022-09-21T06:35:05.047Z,15.69
2022-09-21T06:37:38.425Z,15.96
2022-09-21T06:40:12.519Z,16.28
2022-09-21T06:42:45.554Z,16.51
2022-09-21T06:45:18.566Z,16.64
2022-09-21T06:47:51.504Z,16.93
2022-09-21T06:50:24.628Z,17.31
2022-09-21T06:52:59.027Z,17.68
2022-09-21T06:55:32.662Z,18.10
2022-09-21T06:58:06.142Z,18.62
2022-09-21T07:00:39.007Z,19.13
2022-09-21T07:03:15.313Z,19.67
2022-09-21T07:05:49.913Z,20.31
2022-09-21T07:11:02.756Z,20.77
2022-09-21T07:13:36.336Z,20.68
2022-09-21T07:16:10.759Z,21.10
2022-09-21T07:18:44.570Z,20.79
2022-09-21T07:21:17.591Z,20.82
2022-09-21T07:23:50.503Z,21.39
2022-09-21T07:26:23.395Z,21.94
2022-09-21T07:28:56.572Z,22.08
2022-09-21T07:31:29.790Z,22.21
2022-09-21T07:34:02.605Z,22.48
2022-09-21T07:36:36.109Z,22.42
2022-09-21T07:39:12.601Z,21.97
2022-09-21T07:41:45.790Z,21.43
2022-09-21T07:44:20.377Z,21.10
2022-09-21T07:46:53.450Z,20.77
2022-09-21T07:49:26.304Z,20.33
2022-09-21T07:52:03.936Z,19.94
2022-09-21T07:54:34.482Z,19.73
2022-09-21T07:57:26.651Z,19.61
2022-09-21T07:59:59.530Z,19.53
2022-09-21T08:02:34.576Z,19.51
2022-09-21T08:05:08.531Z,19.40
2022-09-21T08:07:41.464Z,19.49
2022-09-21T08:10:14.497Z,19.72
2022-09-21T08:12:47.405Z,19.91
2022-09-21T08:15:44.115Z,19.94
2022-09-21T08:17:55.042Z,19.89
2022-09-21T08:20:29.209Z,19.79
2022-09-21T08:23:02.555Z,19.74
2022-09-21T08:25:35.492Z,19.41
2022-09-21T08:28:09.994Z,18.91
2022-09-21T08:30:43.520Z,18.82
2022-09-21T08:33:16.521Z,19.02
2022-09-21T08:35:55.768Z,19.40
2022-09-21T08:38:30.343Z,19.43
2022-09-21T08:41:05.143Z,19.65
2022-09-21T08:43:40.654Z,19.71
2022-09-21T08:46:16.908Z,19.54
2022-09-21T08:48:54.437Z,19.23
2022-09-21T08:51:30.706Z,18.97
2022-09-21T08:54:07.610Z,18.81
2022-09-21T08:57:03.515Z,18.73
2022-09-21T08:59:16.831Z,18.81
2022-09-21T09:01:58.502Z,18.68
2022-09-21T09:04:52.718Z,18.80
2022-09-21T09:07:36.022Z,18.98
2022-09-21T09:10:20.817Z,18.96
2022-09-21T09:13:00.520Z,19.05
2022-09-21T09:15:44.160Z,19.06
2022-09-21T09:18:21.928Z,18.94
2022-09-21T09:20:56.588Z,18.96
2022-09-21T09:23:31.948Z,19.34
2022-09-21T09:26:09.043Z,19.38
2022-09-21T09:28:48.153Z,19.52
2022-09-21T09:31:24.849Z,19.76
2022-09-21T09:34:01.538Z,20.06
2022-09-21T09:36:57.453Z,20.27
2022-09-21T09:39:16.084Z,20.83
2022-09-21T09:42:22.140Z,21.47
2022-09-21T09:45:24.534Z,21.38
2022-09-21T09:48:03.361Z,21.21
2022-09-21T09:50:39.203Z,20.97
2022-09-21T09:53:15.341Z,20.67
2022-09-21T09:55:50.903Z,20.38
2022-09-21T09:58:26.787Z,20.20
2022-09-21T10:00:59.736Z,20.06
2022-09-21T10:03:32.801Z,19.91
2022-09-21T10:06:06.065Z,19.73
2022-09-21T10:08:47.783Z,19.72
2022-09-21T10:11:21.206Z,19.68
2022-09-21T10:13:55.637Z,19.77
2022-09-21T10:16:28.726Z,20.00
2022-09-21T10:19:02.622Z,20.50
2022-09-21T10:21:39.376Z,21.01
2022-09-21T10:24:19.193Z,21.35
2022-09-21T10:26:54.776Z,21.91
2022-09-21T10:29:35.364Z,22.32
2022-09-21T10:32:21.812Z,22.94
2022-09-21T10:35:23.411Z,23.22
2022-09-21T10:38:16.260Z,23.32
2022-09-21T10:40:49.080Z,24.02
2022-09-21T10:43:31.896Z,24.24
2022-09-21T10:46:05.348Z,24.21
2022-09-21T10:48:38.771Z,24.06
2022-09-21T10:51:21.979Z,23.83
2022-09-21T10:53:55.411Z,23.49
2022-09-21T10:56:28.368Z,23.14
2022-09-21T10:59:16.286Z,22.88
2022-09-21T11:01:51.223Z,22.88
2022-09-21T11:04:36.177Z,23.06
2022-09-21T11:07:16.561Z,23.65
2022-09-21T11:09:54.270Z,24.54
2022-09-21T11:12:42.938Z,25.07
2022-09-21T11:15:23.757Z,25.24
2022-09-21T11:17:59.800Z,24.88
2022-09-21T11:20:37.285Z,23.86
2022-09-21T11:23:17.037Z,22.83
2022-09-21T11:25:53.402Z,22.05
2022-09-21T11:28:29.979Z,21.37
2022-09-21T11:31:14.850Z,20.80
2022-09-21T11:33:59.152Z,20.31
2022-09-21T11:36:36.728Z,19.87
2022-09-21T11:39:13.097Z,19.62
2022-09-21T11:41:57.455Z,19.44
2022-09-21T11:44:38.181Z,19.35
2022-09-21T11:47:17.981Z,19.21
2022-09-21T11:50:19.435Z,19.04
2022-09-21T11:52:42.290Z,18.86
2022-09-21T11:55:44.614Z,18.57
2022-09-21T11:58:22.561Z,18.37
2022-09-21T12:01:01.712Z,18.12
2022-09-21T12:04:05.296Z,17.92
2022-09-21T12:06:49.590Z,17.78
2022-09-21T12:09:46.205Z,17.70
2022-09-21T12:12:23.466Z,17.63
2022-09-21T12:15:01.382Z,17.62
2022-09-21T12:17:41.160Z,17.72
2022-09-21T12:20:18.039Z,17.83
2022-09-21T12:22:54.222Z,17.86
2022-09-21T12:25:31.721Z,17.84
2022-09-21T12:28:13.977Z,17.71
2022-09-21T12:30:51.391Z,17.61
2022-09-21T12:33:27.232Z,17.48
2022-09-21T12:36:06.612Z,17.41
2022-09-21T12:38:42.898Z,17.34
2022-09-21T12:41:18.855Z,17.24
2022-09-21T12:43:55.283Z,17.14
2022-09-21T12:46:33.690Z,17.06
2022-09-21T12:49:14.367Z,16.99
2022-09-21T12:51:50.441Z,16.88
2022-09-21T12:54:28.137Z,16.76
2022-09-21T12:57:23.607Z,16.66
2022-09-21T12:59:43.546Z,16.54
2022-09-21T13:02:21.571Z,16.49
2022-09-21T13:05:02.694Z,16.54
2022-09-21T13:07:57.167Z,16.57
2022-09-21T13:10:41.816Z,16.52
2022-09-21T13:13:29.196Z,16.41
2022-09-21T13:16:04.376Z,16.20
2022-09-21T13:18:39.916Z,16.10
2022-09-21T13:21:22.075Z,16.02
2022-09-21T13:23:58.410Z,15.92
2022-09-21T13:26:40.785Z,15.82
2022-09-21T13:29:33.488Z,15.76
2022-09-21T13:32:10.977Z,15.81
2022-09-21T13:34:45.512Z,15.81
2022-09-21T13:37:30.981Z,15.82
2022-09-21T13:40:46.299Z,15.83
2022-09-21T13:43:29.737Z,15.89
2022-09-21T13:46:03.248Z,15.93
2022-09-21T13:48:36.383Z,15.91
2022-09-21T13:51:14.441Z,15.82
2022-09-21T13:53:47.421Z,15.74
2022-09-21T13:56:23.992Z,15.74
2022-09-21T13:58:59.549Z,15.76
2022-09-21T14:01:52.725Z,15.76
2022-09-21T14:04:23.219Z,15.77
2022-09-21T14:06:58.646Z,15.59
2022-09-21T14:09:34.453Z,15.55
2022-09-21T14:12:10.808Z,15.45
2022-09-21T14:14:47.349Z,15.41
2022-09-21T14:17:39.772Z,15.34
2022-09-21T14:20:32.682Z,15.39
2022-09-21T14:23:29.506Z,15.41
2022-09-21T14:26:03.640Z,15.40
2022-09-21T14:28:39.665Z,15.39
2022-09-21T14:31:20.866Z,15.31
2022-09-21T14:33:57.832Z,15.26
2022-09-21T14:36:36.773Z,15.22
2022-09-21T14:39:17.405Z,15.08
2022-09-21T14:41:53.598Z,14.99
2022-09-21T14:44:30.042Z,14.91
2022-09-21T14:47:25.524Z,14.81
2022-09-21T14:50:23.171Z,14.70
2022-09-21T14:53:02.773Z,14.60
2022-09-21T14:55:43.534Z,14.49
2022-09-21T14:58:24.803Z,14.24
2022-09-21T15:00:59.812Z,14.13
2022-09-21T15:03:44.660Z,14.07
2022-09-21T15:06:40.681Z,14.07
2022-09-21T15:12:26.073Z,14.13
2022-09-21T15:15:03.663Z,14.00
2022-09-21T15:17:36.816Z,13.96
2022-09-21T15:20:21.786Z,13.95
2022-09-21T15:22:57.622Z,13.90
2022-09-21T15:25:33.355Z,13.96
2022-09-21T15:28:06.343Z,13.98
2022-09-21T15:30:45.206Z,14.00
2022-09-21T15:33:22.171Z,13.97
2022-09-21T15:35:54.876Z,13.94
2022-09-21T15:38:32.579Z,13.85
2022-09-21T15:41:11.504Z,13.81
2022-09-21T15:43:43.125Z,13.68
2022-09-21T15:46:20.347Z,13.62
2022-09-21T15:48:53.263Z,13.55
2022-09-21T15:51:30.439Z,13.56
2022-09-21T15:54:06.642Z,13.51
2022-09-21T15:56:41.341Z,13.48
2022-09-21T15:59:18.155Z,13.38
2022-09-21T16:01:53.584Z,13.37
2022-09-21T16:04:29.416Z,13.35
2022-09-21T16:07:04.602Z,13.35
2022-09-21T16:09:43.493Z,13.35
2022-09-21T16:12:44.248Z,13.30
2022-09-21T16:15:30.213Z,13.22
2022-09-21T16:18:05.046Z,13.18
2022-09-21T16:20:47.487Z,13.13
2022-09-21T16:23:24.194Z,13.10
2022-09-21T16:26:01.013Z,13.06
2022-09-21T16:28:39.764Z,13.03
2022-09-21T16:31:37.445Z,13.04
2022-09-21T16:34:35.708Z,13.01
2022-09-21T16:37:26.273Z,12.95
2022-09-21T16:40:02.154Z,12.86
2022-09-21T16:42:36.233Z,12.85
2022-09-21T16:45:16.129Z,12.81
2022-09-21T16:47:49.287Z,12.78
2022-09-21T16:50:22.256Z,12.71
2022-09-21T16:52:55.371Z,12.69
2022-09-21T16:55:29.266Z,12.64
2022-09-21T16:58:02.405Z,12.58
2022-09-21T17:00:38.311Z,12.50
2022-09-21T17:03:12.988Z,12.41
2022-09-21T17:05:46.067Z,12.49
2022-09-21T17:08:19.451Z,12.48
2022-09-21T17:10:53.067Z,12.45
2022-09-21T17:13:26.221Z,12.49
2022-09-21T17:16:00.186Z,12.50
2022-09-21T17:18:33.763Z,12.45
2022-09-21T17:21:08.816Z,12.51
2022-09-21T17:23:42.316Z,12.54
2022-09-21T17:26:19.413Z,12.57
2022-09-21T17:28:53.665Z,12.59
2022-09-21T17:31:28.309Z,12.59
2022-09-21T17:34:08.226Z,12.60
2022-09-21T17:36:41.395Z,12.57
2022-09-21T17:39:15.014Z,12.54
2022-09-21T17:41:55.137Z,12.57
2022-09-21T17:44:49.464Z,12.56
2022-09-21T17:47:29.673Z,12.55
2022-09-21T17:50:07.336Z,12.46
2022-09-21T17:52:59.326Z,12.51
2022-09-21T17:55:35.294Z,12.50
2022-09-21T17:58:31.412Z,12.46
2022-09-21T18:01:08.054Z,12.40
2022-09-21T18:03:44.605Z,12.33
2022-09-21T18:06:19.103Z,12.34
2022-09-21T18:08:54.351Z,12.32
2022-09-21T18:12:16.132Z,12.35
2022-09-21T18:14:54.290Z,12.38
2022-09-21T18:17:43.252Z,12.43
2022-09-21T18:20:28.769Z,12.38
2022-09-21T18:23:06.281Z,12.30
2022-09-21T18:25:48.499Z,12.20
2022-09-21T18:28:24.591Z,12.12
2022-09-21T18:31:03.051Z,12.06
2022-09-21T18:33:43.444Z,12.09
2022-09-21T18:36:28.467Z,12.17
2022-09-21T18:39:09.131Z,12.27
2022-09-21T18:41:46.167Z,12.34
2022-09-21T18:44:23.294Z,12.43
2022-09-21T18:47:02.534Z,12.54
2022-09-21T18:49:51.507Z,12.61
2022-09-21T18:52:34.160Z,12.68
2022-09-21T18:55:18.049Z,12.64
2022-09-21T18:57:52.372Z,12.53
2022-09-21T19:00:29.808Z,12.43
2022-09-21T19:03:16.927Z,12.33
2022-09-21T19:05:41.607Z,12.29
2022-09-21T19:08:17.521Z,12.20
2022-09-21T19:13:43.716Z,12.28
2022-09-21T19:16:23.081Z,12.13
2022-09-21T19:19:03.149Z,12.08
2022-09-21T19:21:40.704Z,12.01
2022-09-21T19:24:18.923Z,11.97
2022-09-21T19:26:58.096Z,11.95
2022-09-21T19:29:53.086Z,11.93
2022-09-21T19:32:32.890Z,11.89
2022-09-21T19:35:21.623Z,11.92
2022-09-21T19:37:56.237Z,11.93
2022-09-21T19:40:32.481Z,11.90
2022-09-21T19:43:22.078Z,11.85
2022-09-21T19:46:03.937Z,11.79
2022-09-21T19:48:43.281Z,11.72
2022-09-21T19:51:20.782Z,11.70
2022-09-21T19:54:14.918Z,11.65
2022-09-21T19:57:08.804Z,11.57
2022-09-21T19:59:46.079Z,11.51
2022-09-21T20:02:23.859Z,11.51
2022-09-21T20:04:59.309Z,11.52
2022-09-21T20:07:42.765Z,11.52
2022-09-21T20:10:26.849Z,11.52
2022-09-21T20:13:04.907Z,11.48
2022-09-21T20:15:40.668Z,11.48
2022-09-21T20:18:19.861Z,11.49
2022-09-21T20:20:53.384Z,11.46
2022-09-21T20:23:27.276Z,11.43
2022-09-21T20:26:03.415Z,11.32
2022-09-21T20:28:37.447Z,11.29
2022-09-21T20:31:12.337Z,11.26
2022-09-21T20:33:45.265Z,11.23
2022-09-21T20:36:18.294Z,11.22
2022-09-21T20:38:51.277Z,11.22
2022-09-21T20:41:25.212Z,11.21
2022-09-21T20:43:59.257Z,11.21
2022-09-21T20:46:32.970Z,11.24
2022-09-21T20:49:06.864Z,11.24
2022-09-21T20:51:40.160Z,11.21
2022-09-21T20:54:13.091Z,11.20
2022-09-21T20:56:47.098Z,11.19
2022-09-21T20:59:20.511Z,11.20
2022-09-21T21:01:59.325Z,11.23
2022-09-21T21:04:33.147Z,11.18
2022-09-21T21:07:06.099Z,11.19
2022-09-21T21:09:39.682Z,11.22
2022-09-21T21:12:13.161Z,11.29
2022-09-21T21:14:46.194Z,11.29
2022-09-21T21:17:18.983Z,11.29
2022-09-21T21:19:51.925Z,11.33
2022-09-21T21:22:24.731Z,11.33
2022-09-21T21:24:57.685Z,11.27
2022-09-21T21:27:31.012Z,11.20
2022-09-21T21:30:04.804Z,11.16
2022-09-21T21:32:38.246Z,11.08
2022-09-21T21:35:12.060Z,11.02
2022-09-21T21:37:45.560Z,11.00
2022-09-21T21:40:18.917Z,10.99
2022-09-21T21:42:51.946Z,10.94
2022-09-21T21:45:25.031Z,10.95
2022-09-21T21:47:58.051Z,10.97
2022-09-21T21:50:31.826Z,10.93
2022-09-21T21:53:04.845Z,10.93
2022-09-21T21:55:37.901Z,10.97
2022-09-21T21:58:12.054Z,10.98
2022-09-21T22:00:45.963Z,11.00
2022-09-21T22:03:19.010Z,11.06
2022-09-21T22:05:57.218Z,11.10
2022-09-21T22:08:30.439Z,11.10
2022-09-21T22:11:04.103Z,11.10
2022-09-21T22:13:38.899Z,11.14
2022-09-21T22:16:14.564Z,11.19
2022-09-21T22:18:48.127Z,11.20
2022-09-21T22:21:23.730Z,11.14
2022-09-21T22:23:58.993Z,11.12
2022-09-21T22:26:34.393Z,11.12
2022-09-21T22:29:09.585Z,11.09
2022-09-21T22:31:44.583Z,11.01
2022-09-21T22:34:17.744Z,10.99
2022-09-21T22:36:51.103Z,10.95
2022-09-21T22:39:24.393Z,10.92
2022-09-21T22:41:57.604Z,10.89
2022-09-21T22:44:30.354Z,10.91
2022-09-21T22:47:03.262Z,10.95
2022-09-21T22:49:35.984Z,10.95
2022-09-21T22:52:08.789Z,10.93
2022-09-21T22:54:41.747Z,10.95
2022-09-21T22:57:14.752Z,11.00
2022-09-21T22:59:47.855Z,11.02
2022-09-21T23:02:20.871Z,11.02
2022-09-21T23:04:53.708Z,11.02
2022-09-21T23:07:26.680Z,11.03
2022-09-21T23:10:00.172Z,11.02
2022-09-21T23:12:34.100Z,11.06
2022-09-21T23:15:08.648Z,11.05
2022-09-21T23:17:41.663Z,11.01
2022-09-21T23:20:15.797Z,10.98
2022-09-21T23:22:48.731Z,10.93
2022-09-21T23:25:22.251Z,10.93
2022-09-21T23:27:55.852Z,10.90
2022-09-21T23:30:28.741Z,10.91
2022-09-21T23:33:01.652Z,10.86
2022-09-21T23:35:34.630Z,10.83
2022-09-21T23:38:07.382Z,10.81
2022-09-21T23:40:40.292Z,10.83
2022-09-21T23:43:13.268Z,10.86
2022-09-21T23:45:46.132Z,10.89
2022-09-21T23:48:18.961Z,10.84
2022-09-21T23:50:52.277Z,10.79
2022-09-21T23:53:26.553Z,10.80
2022-09-21T23:55:59.981Z,10.81
2022-09-21T23:58:33.319Z,10.84
